sensor_id;sensor_type;location;lat;lon;timestamp;temperature;humidity
18408;DHT22;9330;52.210;21.174;2023-06-10T00:00:23;18.30;99.90
18408;DHT22;9330;52.210;21.174;2023-06-10T00:02:50;18.30;99.90
18408;DHT22;9330;52.210;21.174;2023-06-10T00:05:17;18.20;99.90
18408;DHT22;9330;52.210;21.174;2023-06-10T00:07:46;18.20;99.90
18408;DHT22;9330;52.210;21.174;2023-06-10T00:10:13;18.20;99.90
18408;DHT22;9330;52.210;21.174;2023-06-10T00:12:41;18.10;99.90
18408;DHT22;9330;52.210;21.174;2023-06-10T00:15:09;18.10;99.90
18408;DHT22;9330;52.210;21.174;2023-06-10T00:17:38;18.00;99.90
18408;DHT22;9330;52.210;21.174;2023-06-10T00:20:08;18.00;99.90
18408;DHT22;9330;52.210;21.174;2023-06-10T00:22:37;18.00;99.90
18408;DHT22;9330;52.210;21.174;2023-06-10T00:25:05;17.90;99.90
18408;DHT22;9330;52.210;21.174;2023-06-10T00:27:32;17.90;99.90
18408;DHT22;9330;52.210;21.174;2023-06-10T00:30:01;17.90;99.90
18408;DHT22;9330;52.210;21.174;2023-06-10T00:32:29;17.90;99.90
18408;DHT22;9330;52.210;21.174;2023-06-10T00:34:58;17.80;99.90
18408;DHT22;9330;52.210;21.174;2023-06-10T00:37:25;17.80;99.90
18408;DHT22;9330;52.210;21.174;2023-06-10T00:39:51;17.80;99.90
18408;DHT22;9330;52.210;21.174;2023-06-10T00:42:19;17.80;99.90
18408;DHT22;9330;52.210;21.174;2023-06-10T00:44:46;17.70;99.90
18408;DHT22;9330;52.210;21.174;2023-06-10T00:47:13;17.70;99.90
18408;DHT22;9330;52.210;21.174;2023-06-10T00:49:40;17.60;99.90
18408;DHT22;9330;52.210;21.174;2023-06-10T00:52:10;17.60;99.90
18408;DHT22;9330;52.210;21.174;2023-06-10T00:54:37;17.50;99.90
18408;DHT22;9330;52.210;21.174;2023-06-10T00:57:05;17.50;99.90
18408;DHT22;9330;52.210;21.174;2023-06-10T00:59:32;17.40;99.90
18408;DHT22;9330;52.210;21.174;2023-06-10T01:01:59;17.40;99.90
18408;DHT22;9330;52.210;21.174;2023-06-10T01:04:27;17.40;99.90
18408;DHT22;9330;52.210;21.174;2023-06-10T01:06:57;17.40;99.90
18408;DHT22;9330;52.210;21.174;2023-06-10T01:09:33;17.40;99.90
18408;DHT22;9330;52.210;21.174;2023-06-10T01:12:08;17.30;99.90
18408;DHT22;9330;52.210;21.174;2023-06-10T01:14:36;17.30;99.90
18408;DHT22;9330;52.210;21.174;2023-06-10T01:17:04;17.30;99.90
18408;DHT22;9330;52.210;21.174;2023-06-10T01:19:32;17.20;99.90
18408;DHT22;9330;52.210;21.174;2023-06-10T01:22:00;17.20;99.90
18408;DHT22;9330;52.210;21.174;2023-06-10T01:24:28;17.20;99.90
18408;DHT22;9330;52.210;21.174;2023-06-10T01:27:01;17.20;99.90
18408;DHT22;9330;52.210;21.174;2023-06-10T01:29:36;17.20;99.90
18408;DHT22;9330;52.210;21.174;2023-06-10T01:32:07;17.10;99.90
18408;DHT22;9330;52.210;21.174;2023-06-10T01:34:39;17.10;99.90
18408;DHT22;9330;52.210;21.174;2023-06-10T01:37:11;17.00;99.90
18408;DHT22;9330;52.210;21.174;2023-06-10T01:39:40;17.00;99.90
18408;DHT22;9330;52.210;21.174;2023-06-10T01:42:10;17.00;99.90
18408;DHT22;9330;52.210;21.174;2023-06-10T01:44:39;17.00;99.90
18408;DHT22;9330;52.210;21.174;2023-06-10T01:47:07;17.00;99.90
18408;DHT22;9330;52.210;21.174;2023-06-10T01:49:34;17.10;99.90
18408;DHT22;9330;52.210;21.174;2023-06-10T01:52:01;17.00;99.90
18408;DHT22;9330;52.210;21.174;2023-06-10T01:54:30;17.00;99.90
18408;DHT22;9330;52.210;21.174;2023-06-10T01:56:57;17.00;99.90
18408;DHT22;9330;52.210;21.174;2023-06-10T01:59:23;17.00;99.90
18408;DHT22;9330;52.210;21.174;2023-06-10T02:01:50;16.90;99.90
18408;DHT22;9330;52.210;21.174;2023-06-10T02:04:17;16.90;99.90
18408;DHT22;9330;52.210;21.174;2023-06-10T02:06:44;16.90;99.90
18408;DHT22;9330;52.210;21.174;2023-06-10T02:09:11;16.90;99.90
18408;DHT22;9330;52.210;21.174;2023-06-10T02:11:39;16.80;99.90
18408;DHT22;9330;52.210;21.174;2023-06-10T02:14:06;16.80;99.90
18408;DHT22;9330;52.210;21.174;2023-06-10T02:16:33;16.70;99.90
18408;DHT22;9330;52.210;21.174;2023-06-10T02:19:00;16.70;99.90
18408;DHT22;9330;52.210;21.174;2023-06-10T02:21:31;16.60;99.90
18408;DHT22;9330;52.210;21.174;2023-06-10T02:23:59;16.60;99.90
18408;DHT22;9330;52.210;21.174;2023-06-10T02:26:26;16.60;99.90
18408;DHT22;9330;52.210;21.174;2023-06-10T02:28:55;16.60;99.90
18408;DHT22;9330;52.210;21.174;2023-06-10T02:31:21;16.50;99.90
18408;DHT22;9330;52.210;21.174;2023-06-10T02:33:50;16.50;99.90
18408;DHT22;9330;52.210;21.174;2023-06-10T02:36:17;16.50;99.90
18408;DHT22;9330;52.210;21.174;2023-06-10T02:38:44;16.40;99.90
18408;DHT22;9330;52.210;21.174;2023-06-10T02:41:11;16.40;99.90
18408;DHT22;9330;52.210;21.174;2023-06-10T02:43:38;16.40;99.90
18408;DHT22;9330;52.210;21.174;2023-06-10T02:46:06;16.30;99.90
18408;DHT22;9330;52.210;21.174;2023-06-10T02:48:40;16.30;99.90
18408;DHT22;9330;52.210;21.174;2023-06-10T02:51:08;16.40;99.90
18408;DHT22;9330;52.210;21.174;2023-06-10T02:53:35;16.30;99.90
18408;DHT22;9330;52.210;21.174;2023-06-10T02:56:02;16.30;99.90
18408;DHT22;9330;52.210;21.174;2023-06-10T02:58:29;16.30;99.90
18408;DHT22;9330;52.210;21.174;2023-06-10T03:00:56;16.30;99.90
18408;DHT22;9330;52.210;21.174;2023-06-10T03:03:25;16.30;99.90
18408;DHT22;9330;52.210;21.174;2023-06-10T03:05:53;16.30;99.90
18408;DHT22;9330;52.210;21.174;2023-06-10T03:08:20;16.30;99.90
18408;DHT22;9330;52.210;21.174;2023-06-10T03:10:47;16.30;99.90
18408;DHT22;9330;52.210;21.174;2023-06-10T03:13:14;16.30;99.90
18408;DHT22;9330;52.210;21.174;2023-06-10T03:15:41;16.40;99.90
18408;DHT22;9330;52.210;21.174;2023-06-10T03:18:08;16.40;99.90
18408;DHT22;9330;52.210;21.174;2023-06-10T03:20:36;16.40;99.90
18408;DHT22;9330;52.210;21.174;2023-06-10T03:23:05;16.40;99.90
18408;DHT22;9330;52.210;21.174;2023-06-10T03:25:32;16.50;99.90
18408;DHT22;9330;52.210;21.174;2023-06-10T03:27:59;16.50;99.90
18408;DHT22;9330;52.210;21.174;2023-06-10T03:30:27;16.60;99.90
18408;DHT22;9330;52.210;21.174;2023-06-10T03:32:54;16.60;99.90
18408;DHT22;9330;52.210;21.174;2023-06-10T03:35:21;16.70;99.90
18408;DHT22;9330;52.210;21.174;2023-06-10T03:37:49;16.70;99.90
18408;DHT22;9330;52.210;21.174;2023-06-10T03:40:16;16.80;99.90
18408;DHT22;9330;52.210;21.174;2023-06-10T03:42:42;16.80;99.90
18408;DHT22;9330;52.210;21.174;2023-06-10T03:45:10;16.90;99.90
18408;DHT22;9330;52.210;21.174;2023-06-10T03:47:38;17.00;99.90
18408;DHT22;9330;52.210;21.174;2023-06-10T03:50:06;17.00;99.90
18408;DHT22;9330;52.210;21.174;2023-06-10T03:52:34;17.00;99.90
18408;DHT22;9330;52.210;21.174;2023-06-10T03:55:03;17.00;99.90
18408;DHT22;9330;52.210;21.174;2023-06-10T03:57:30;17.10;99.90
18408;DHT22;9330;52.210;21.174;2023-06-10T03:59:58;17.10;99.90
18408;DHT22;9330;52.210;21.174;2023-06-10T04:02:25;17.10;99.90
18408;DHT22;9330;52.210;21.174;2023-06-10T04:04:51;17.10;99.90
18408;DHT22;9330;52.210;21.174;2023-06-10T04:07:18;17.10;99.90
18408;DHT22;9330;52.210;21.174;2023-06-10T04:09:45;17.10;99.90
18408;DHT22;9330;52.210;21.174;2023-06-10T04:12:14;17.20;99.90
18408;DHT22;9330;52.210;21.174;2023-06-10T04:14:42;17.20;99.90
18408;DHT22;9330;52.210;21.174;2023-06-10T04:17:09;17.30;99.90
18408;DHT22;9330;52.210;21.174;2023-06-10T04:19:36;17.30;99.90
18408;DHT22;9330;52.210;21.174;2023-06-10T04:22:03;17.30;99.90
18408;DHT22;9330;52.210;21.174;2023-06-10T04:24:30;17.40;99.90
18408;DHT22;9330;52.210;21.174;2023-06-10T04:26:57;17.40;99.90
18408;DHT22;9330;52.210;21.174;2023-06-10T04:29:25;17.40;99.90
18408;DHT22;9330;52.210;21.174;2023-06-10T04:31:52;17.50;99.90
18408;DHT22;9330;52.210;21.174;2023-06-10T04:34:19;17.50;99.90
18408;DHT22;9330;52.210;21.174;2023-06-10T04:36:46;17.60;99.90
18408;DHT22;9330;52.210;21.174;2023-06-10T04:39:13;17.80;99.90
18408;DHT22;9330;52.210;21.174;2023-06-10T04:41:42;17.80;99.90
18408;DHT22;9330;52.210;21.174;2023-06-10T04:44:09;17.90;99.90
18408;DHT22;9330;52.210;21.174;2023-06-10T04:46:37;18.10;99.90
18408;DHT22;9330;52.210;21.174;2023-06-10T04:49:04;18.20;99.90
18408;DHT22;9330;52.210;21.174;2023-06-10T04:51:31;18.30;99.90
18408;DHT22;9330;52.210;21.174;2023-06-10T04:53:58;18.30;99.90
18408;DHT22;9330;52.210;21.174;2023-06-10T04:56:28;18.40;99.90
18408;DHT22;9330;52.210;21.174;2023-06-10T04:58:55;18.50;99.90
18408;DHT22;9330;52.210;21.174;2023-06-10T05:01:22;18.50;99.90
18408;DHT22;9330;52.210;21.174;2023-06-10T05:03:50;18.60;99.90
18408;DHT22;9330;52.210;21.174;2023-06-10T05:06:17;18.70;99.90
18408;DHT22;9330;52.210;21.174;2023-06-10T05:08:44;18.80;99.90
18408;DHT22;9330;52.210;21.174;2023-06-10T05:11:11;18.80;99.90
18408;DHT22;9330;52.210;21.174;2023-06-10T05:13:38;19.00;99.90
18408;DHT22;9330;52.210;21.174;2023-06-10T05:16:05;19.10;99.90
18408;DHT22;9330;52.210;21.174;2023-06-10T05:18:33;19.20;99.90
18408;DHT22;9330;52.210;21.174;2023-06-10T05:21:02;19.30;99.90
18408;DHT22;9330;52.210;21.174;2023-06-10T05:23:29;19.40;99.90
18408;DHT22;9330;52.210;21.174;2023-06-10T05:25:56;19.50;99.90
18408;DHT22;9330;52.210;21.174;2023-06-10T05:28:23;19.60;99.90
18408;DHT22;9330;52.210;21.174;2023-06-10T05:30:51;19.60;99.90
18408;DHT22;9330;52.210;21.174;2023-06-10T05:33:18;19.70;99.90
18408;DHT22;9330;52.210;21.174;2023-06-10T05:35:45;19.70;99.90
18408;DHT22;9330;52.210;21.174;2023-06-10T05:38:13;19.60;99.90
18408;DHT22;9330;52.210;21.174;2023-06-10T05:40:40;19.60;99.90
18408;DHT22;9330;52.210;21.174;2023-06-10T05:43:06;19.60;99.90
18408;DHT22;9330;52.210;21.174;2023-06-10T05:45:34;19.60;99.90
18408;DHT22;9330;52.210;21.174;2023-06-10T05:48:01;19.60;99.90
18408;DHT22;9330;52.210;21.174;2023-06-10T05:50:28;19.60;99.90
18408;DHT22;9330;52.210;21.174;2023-06-10T05:52:55;19.70;99.90
18408;DHT22;9330;52.210;21.174;2023-06-10T05:55:24;19.90;99.90
18408;DHT22;9330;52.210;21.174;2023-06-10T05:57:58;19.70;99.90
18408;DHT22;9330;52.210;21.174;2023-06-10T06:00:26;19.70;99.90
18408;DHT22;9330;52.210;21.174;2023-06-10T06:02:53;19.80;99.90
18408;DHT22;9330;52.210;21.174;2023-06-10T06:05:22;19.70;99.90
18408;DHT22;9330;52.210;21.174;2023-06-10T06:07:49;19.70;99.90
18408;DHT22;9330;52.210;21.174;2023-06-10T06:10:17;19.90;99.90
18408;DHT22;9330;52.210;21.174;2023-06-10T06:12:45;20.10;99.90
18408;DHT22;9330;52.210;21.174;2023-06-10T06:15:12;20.30;99.90
18408;DHT22;9330;52.210;21.174;2023-06-10T06:17:38;20.40;99.90
18408;DHT22;9330;52.210;21.174;2023-06-10T06:20:07;20.60;99.90
18408;DHT22;9330;52.210;21.174;2023-06-10T06:22:34;20.90;99.90
18408;DHT22;9330;52.210;21.174;2023-06-10T06:25:00;21.10;99.90
18408;DHT22;9330;52.210;21.174;2023-06-10T06:27:28;21.30;99.90
18408;DHT22;9330;52.210;21.174;2023-06-10T06:29:56;21.50;99.90
18408;DHT22;9330;52.210;21.174;2023-06-10T06:32:23;21.60;99.40
18408;DHT22;9330;52.210;21.174;2023-06-10T06:34:52;21.90;99.70
18408;DHT22;9330;52.210;21.174;2023-06-10T06:37:21;22.10;99.60
18408;DHT22;9330;52.210;21.174;2023-06-10T06:39:48;22.20;98.70
18408;DHT22;9330;52.210;21.174;2023-06-10T06:42:15;22.30;97.50
18408;DHT22;9330;52.210;21.174;2023-06-10T06:44:42;22.30;97.30
18408;DHT22;9330;52.210;21.174;2023-06-10T06:47:10;22.40;96.30
18408;DHT22;9330;52.210;21.174;2023-06-10T06:49:37;22.50;98.50
18408;DHT22;9330;52.210;21.174;2023-06-10T06:52:04;22.60;96.90
18408;DHT22;9330;52.210;21.174;2023-06-10T06:54:31;22.70;95.70
18408;DHT22;9330;52.210;21.174;2023-06-10T06:56:58;22.70;95.60
18408;DHT22;9330;52.210;21.174;2023-06-10T06:59:25;22.60;97.00
18408;DHT22;9330;52.210;21.174;2023-06-10T07:01:52;22.90;95.90
18408;DHT22;9330;52.210;21.174;2023-06-10T07:04:21;22.70;94.10
18408;DHT22;9330;52.210;21.174;2023-06-10T07:06:49;22.50;95.10
18408;DHT22;9330;52.210;21.174;2023-06-10T07:09:15;22.70;96.80
18408;DHT22;9330;52.210;21.174;2023-06-10T07:11:42;23.00;95.70
18408;DHT22;9330;52.210;21.174;2023-06-10T07:14:09;23.20;95.80
18408;DHT22;9330;52.210;21.174;2023-06-10T07:16:36;23.30;92.30
18408;DHT22;9330;52.210;21.174;2023-06-10T07:19:03;23.40;95.40
18408;DHT22;9330;52.210;21.174;2023-06-10T07:21:31;23.60;92.00
18408;DHT22;9330;52.210;21.174;2023-06-10T07:23:59;23.60;91.90
18408;DHT22;9330;52.210;21.174;2023-06-10T07:26:26;23.70;91.40
18408;DHT22;9330;52.210;21.174;2023-06-10T07:28:53;23.80;91.10
18408;DHT22;9330;52.210;21.174;2023-06-10T07:31:20;23.70;91.20
18408;DHT22;9330;52.210;21.174;2023-06-10T07:33:47;23.80;87.40
18408;DHT22;9330;52.210;21.174;2023-06-10T07:36:13;23.80;89.70
18408;DHT22;9330;52.210;21.174;2023-06-10T07:38:42;23.70;92.10
18408;DHT22;9330;52.210;21.174;2023-06-10T07:41:09;23.90;89.80
18408;DHT22;9330;52.210;21.174;2023-06-10T07:43:36;24.00;82.40
18408;DHT22;9330;52.210;21.174;2023-06-10T07:46:03;24.10;84.40
18408;DHT22;9330;52.210;21.174;2023-06-10T07:48:31;24.20;83.20
18408;DHT22;9330;52.210;21.174;2023-06-10T07:50:59;24.50;90.10
18408;DHT22;9330;52.210;21.174;2023-06-10T07:53:26;24.60;84.30
18408;DHT22;9330;52.210;21.174;2023-06-10T07:55:54;24.50;81.50
18408;DHT22;9330;52.210;21.174;2023-06-10T07:58:21;24.60;77.70
18408;DHT22;9330;52.210;21.174;2023-06-10T08:00:48;24.60;82.50
18408;DHT22;9330;52.210;21.174;2023-06-10T08:03:15;24.80;78.10
18408;DHT22;9330;52.210;21.174;2023-06-10T08:05:42;24.70;78.70
18408;DHT22;9330;52.210;21.174;2023-06-10T08:08:09;24.70;75.90
18408;DHT22;9330;52.210;21.174;2023-06-10T08:10:36;24.30;75.90
18408;DHT22;9330;52.210;21.174;2023-06-10T08:13:04;24.10;79.80
18408;DHT22;9330;52.210;21.174;2023-06-10T08:15:31;24.20;79.10
18408;DHT22;9330;52.210;21.174;2023-06-10T08:17:57;24.40;80.40
18408;DHT22;9330;52.210;21.174;2023-06-10T08:20:24;24.60;84.50
18408;DHT22;9330;52.210;21.174;2023-06-10T08:22:51;24.70;72.00
18408;DHT22;9330;52.210;21.174;2023-06-10T08:25:18;24.80;74.80
18408;DHT22;9330;52.210;21.174;2023-06-10T08:27:47;24.70;74.10
18408;DHT22;9330;52.210;21.174;2023-06-10T08:30:15;24.80;73.40
18408;DHT22;9330;52.210;21.174;2023-06-10T08:32:42;24.90;74.70
18408;DHT22;9330;52.210;21.174;2023-06-10T08:35:10;25.00;73.20
18408;DHT22;9330;52.210;21.174;2023-06-10T08:37:37;24.80;65.90
18408;DHT22;9330;52.210;21.174;2023-06-10T08:40:05;24.70;67.60
18408;DHT22;9330;52.210;21.174;2023-06-10T08:42:35;24.50;68.00
18408;DHT22;9330;52.210;21.174;2023-06-10T08:45:06;24.50;69.10
18408;DHT22;9330;52.210;21.174;2023-06-10T08:47:36;24.30;64.00
18408;DHT22;9330;52.210;21.174;2023-06-10T08:50:07;24.30;66.90
18408;DHT22;9330;52.210;21.174;2023-06-10T08:52:36;24.40;69.60
18408;DHT22;9330;52.210;21.174;2023-06-10T08:55:11;24.20;62.20
18408;DHT22;9330;52.210;21.174;2023-06-10T08:57:40;24.10;64.20
18408;DHT22;9330;52.210;21.174;2023-06-10T09:00:08;24.40;59.80
18408;DHT22;9330;52.210;21.174;2023-06-10T09:02:36;24.60;58.30
18408;DHT22;9330;52.210;21.174;2023-06-10T09:05:05;24.70;57.70
18408;DHT22;9330;52.210;21.174;2023-06-10T09:07:32;24.80;57.30
18408;DHT22;9330;52.210;21.174;2023-06-10T09:10:01;25.00;54.20
18408;DHT22;9330;52.210;21.174;2023-06-10T09:12:32;25.10;54.10
18408;DHT22;9330;52.210;21.174;2023-06-10T09:14:59;25.10;53.60
18408;DHT22;9330;52.210;21.174;2023-06-10T09:17:26;25.10;50.60
18408;DHT22;9330;52.210;21.174;2023-06-10T09:19:56;25.10;52.40
18408;DHT22;9330;52.210;21.174;2023-06-10T09:22:23;25.10;48.20
18408;DHT22;9330;52.210;21.174;2023-06-10T09:24:52;25.10;48.70
18408;DHT22;9330;52.210;21.174;2023-06-10T09:27:29;25.20;51.50
18408;DHT22;9330;52.210;21.174;2023-06-10T09:29:56;25.30;53.20
18408;DHT22;9330;52.210;21.174;2023-06-10T09:32:24;25.30;46.80
18408;DHT22;9330;52.210;21.174;2023-06-10T09:34:51;25.10;45.10
18408;DHT22;9330;52.210;21.174;2023-06-10T09:37:23;25.10;45.70
18408;DHT22;9330;52.210;21.174;2023-06-10T09:40:02;25.00;47.50
18408;DHT22;9330;52.210;21.174;2023-06-10T09:42:32;25.00;47.50
18408;DHT22;9330;52.210;21.174;2023-06-10T09:45:00;25.20;51.40
18408;DHT22;9330;52.210;21.174;2023-06-10T09:47:26;25.30;46.40
18408;DHT22;9330;52.210;21.174;2023-06-10T09:49:53;25.40;48.80
18408;DHT22;9330;52.210;21.174;2023-06-10T09:52:26;25.50;47.00
18408;DHT22;9330;52.210;21.174;2023-06-10T09:54:54;25.40;46.10
18408;DHT22;9330;52.210;21.174;2023-06-10T09:57:21;25.60;47.30
18408;DHT22;9330;52.210;21.174;2023-06-10T09:59:52;25.60;45.80
18408;DHT22;9330;52.210;21.174;2023-06-10T10:02:20;25.60;47.50
18408;DHT22;9330;52.210;21.174;2023-06-10T10:04:47;25.70;47.20
18408;DHT22;9330;52.210;21.174;2023-06-10T10:07:14;25.60;44.80
18408;DHT22;9330;52.210;21.174;2023-06-10T10:09:42;25.50;46.40
18408;DHT22;9330;52.210;21.174;2023-06-10T10:12:11;25.60;46.10
18408;DHT22;9330;52.210;21.174;2023-06-10T10:14:39;25.40;46.20
18408;DHT22;9330;52.210;21.174;2023-06-10T10:17:10;25.40;45.00
18408;DHT22;9330;52.210;21.174;2023-06-10T10:19:40;25.40;46.00
18408;DHT22;9330;52.210;21.174;2023-06-10T10:22:15;25.50;45.80
18408;DHT22;9330;52.210;21.174;2023-06-10T10:24:49;25.40;44.10
18408;DHT22;9330;52.210;21.174;2023-06-10T10:27:18;25.40;42.90
18408;DHT22;9330;52.210;21.174;2023-06-10T10:29:48;25.60;44.00
18408;DHT22;9330;52.210;21.174;2023-06-10T10:32:18;25.80;40.10
18408;DHT22;9330;52.210;21.174;2023-06-10T10:34:53;25.80;40.00
18408;DHT22;9330;52.210;21.174;2023-06-10T10:37:22;25.70;38.70
18408;DHT22;9330;52.210;21.174;2023-06-10T10:39:50;25.90;37.80
18408;DHT22;9330;52.210;21.174;2023-06-10T10:42:18;25.80;38.70
18408;DHT22;9330;52.210;21.174;2023-06-10T10:44:45;25.60;39.40
18408;DHT22;9330;52.210;21.174;2023-06-10T10:47:14;25.60;41.00
18408;DHT22;9330;52.210;21.174;2023-06-10T10:49:43;25.50;38.30
18408;DHT22;9330;52.210;21.174;2023-06-10T10:52:12;25.50;42.20
18408;DHT22;9330;52.210;21.174;2023-06-10T10:54:43;25.60;39.40
18408;DHT22;9330;52.210;21.174;2023-06-10T10:57:13;25.60;41.90
18408;DHT22;9330;52.210;21.174;2023-06-10T10:59:52;25.70;41.00
18408;DHT22;9330;52.210;21.174;2023-06-10T11:02:33;25.70;41.90
18408;DHT22;9330;52.210;21.174;2023-06-10T11:05:01;25.70;40.60
18408;DHT22;9330;52.210;21.174;2023-06-10T11:07:30;25.70;41.30
18408;DHT22;9330;52.210;21.174;2023-06-10T11:09:58;25.80;40.80
18408;DHT22;9330;52.210;21.174;2023-06-10T11:12:50;25.80;41.10
18408;DHT22;9330;52.210;21.174;2023-06-10T11:15:22;26.00;43.30
18408;DHT22;9330;52.210;21.174;2023-06-10T11:18:09;26.30;41.90
18408;DHT22;9330;52.210;21.174;2023-06-10T11:20:51;26.50;44.30
18408;DHT22;9330;52.210;21.174;2023-06-10T11:23:38;26.60;42.90
18408;DHT22;9330;52.210;21.174;2023-06-10T11:26:16;26.70;45.40
18408;DHT22;9330;52.210;21.174;2023-06-10T11:29:06;26.60;43.40
18408;DHT22;9330;52.210;21.174;2023-06-10T11:31:40;26.50;44.20
18408;DHT22;9330;52.210;21.174;2023-06-10T11:34:08;26.40;45.50
18408;DHT22;9330;52.210;21.174;2023-06-10T11:36:37;26.40;44.70
18408;DHT22;9330;52.210;21.174;2023-06-10T11:39:06;26.30;45.30
18408;DHT22;9330;52.210;21.174;2023-06-10T11:41:34;26.50;46.00
18408;DHT22;9330;52.210;21.174;2023-06-10T11:44:02;26.70;46.40
18408;DHT22;9330;52.210;21.174;2023-06-10T11:46:31;26.80;45.30
18408;DHT22;9330;52.210;21.174;2023-06-10T11:48:59;26.90;46.40
18408;DHT22;9330;52.210;21.174;2023-06-10T11:51:27;27.10;48.00
18408;DHT22;9330;52.210;21.174;2023-06-10T11:53:54;26.90;47.00
18408;DHT22;9330;52.210;21.174;2023-06-10T11:56:21;27.00;48.70
18408;DHT22;9330;52.210;21.174;2023-06-10T11:58:53;27.20;44.90
18408;DHT22;9330;52.210;21.174;2023-06-10T12:01:20;27.50;47.40
18408;DHT22;9330;52.210;21.174;2023-06-10T12:03:56;27.60;45.70
18408;DHT22;9330;52.210;21.174;2023-06-10T12:06:23;27.30;46.50
18408;DHT22;9330;52.210;21.174;2023-06-10T12:08:50;27.30;46.10
18408;DHT22;9330;52.210;21.174;2023-06-10T12:11:17;27.20;45.20
18408;DHT22;9330;52.210;21.174;2023-06-10T12:13:48;27.10;45.60
18408;DHT22;9330;52.210;21.174;2023-06-10T12:16:16;27.30;46.20
18408;DHT22;9330;52.210;21.174;2023-06-10T12:18:44;26.80;45.50
18408;DHT22;9330;52.210;21.174;2023-06-10T12:21:20;26.70;44.30
18408;DHT22;9330;52.210;21.174;2023-06-10T12:24:03;27.00;46.00
18408;DHT22;9330;52.210;21.174;2023-06-10T12:26:38;27.30;46.40
18408;DHT22;9330;52.210;21.174;2023-06-10T12:29:22;27.40;45.40
18408;DHT22;9330;52.210;21.174;2023-06-10T12:31:54;27.40;44.40
18408;DHT22;9330;52.210;21.174;2023-06-10T12:34:28;27.10;45.20
18408;DHT22;9330;52.210;21.174;2023-06-10T12:36:57;26.70;46.30
18408;DHT22;9330;52.210;21.174;2023-06-10T12:39:24;26.40;46.20
18408;DHT22;9330;52.210;21.174;2023-06-10T12:41:51;26.20;46.40
18408;DHT22;9330;52.210;21.174;2023-06-10T12:44:28;26.30;45.00
18408;DHT22;9330;52.210;21.174;2023-06-10T12:46:55;26.40;47.30
18408;DHT22;9330;52.210;21.174;2023-06-10T12:49:22;26.50;46.20
18408;DHT22;9330;52.210;21.174;2023-06-10T12:51:49;26.20;46.60
18408;DHT22;9330;52.210;21.174;2023-06-10T12:54:17;25.90;46.80
18408;DHT22;9330;52.210;21.174;2023-06-10T12:56:44;26.00;46.80
18408;DHT22;9330;52.210;21.174;2023-06-10T12:59:11;25.80;48.00
18408;DHT22;9330;52.210;21.174;2023-06-10T13:01:38;25.70;48.60
18408;DHT22;9330;52.210;21.174;2023-06-10T13:04:05;25.50;48.70
18408;DHT22;9330;52.210;21.174;2023-06-10T13:06:33;25.20;49.00
18408;DHT22;9330;52.210;21.174;2023-06-10T13:09:02;25.00;50.00
18408;DHT22;9330;52.210;21.174;2023-06-10T13:11:31;25.10;50.70
18408;DHT22;9330;52.210;21.174;2023-06-10T13:13:57;25.10;51.20
18408;DHT22;9330;52.210;21.174;2023-06-10T13:16:25;25.10;51.20
18408;DHT22;9330;52.210;21.174;2023-06-10T13:18:53;25.20;51.20
18408;DHT22;9330;52.210;21.174;2023-06-10T13:21:21;25.30;50.00
18408;DHT22;9330;52.210;21.174;2023-06-10T13:23:48;25.20;49.70
18408;DHT22;9330;52.210;21.174;2023-06-10T13:26:15;25.10;51.30
18408;DHT22;9330;52.210;21.174;2023-06-10T13:28:44;25.10;50.60
18408;DHT22;9330;52.210;21.174;2023-06-10T13:31:11;25.10;50.30
18408;DHT22;9330;52.210;21.174;2023-06-10T13:33:37;25.10;50.30
18408;DHT22;9330;52.210;21.174;2023-06-10T13:36:05;25.20;51.70
18408;DHT22;9330;52.210;21.174;2023-06-10T13:38:32;25.30;51.30
18408;DHT22;9330;52.210;21.174;2023-06-10T13:40:58;25.40;51.30
18408;DHT22;9330;52.210;21.174;2023-06-10T13:43:25;25.50;51.40
18408;DHT22;9330;52.210;21.174;2023-06-10T13:45:53;25.50;50.30
18408;DHT22;9330;52.210;21.174;2023-06-10T13:48:20;25.60;49.80
18408;DHT22;9330;52.210;21.174;2023-06-10T13:50:47;25.60;48.10
18408;DHT22;9330;52.210;21.174;2023-06-10T13:53:14;25.50;48.80
18408;DHT22;9330;52.210;21.174;2023-06-10T13:55:41;25.30;48.80
18408;DHT22;9330;52.210;21.174;2023-06-10T13:58:08;25.10;49.60
18408;DHT22;9330;52.210;21.174;2023-06-10T14:00:35;24.80;50.30
18408;DHT22;9330;52.210;21.174;2023-06-10T14:03:03;24.70;51.10
18408;DHT22;9330;52.210;21.174;2023-06-10T14:05:30;24.60;51.50
18408;DHT22;9330;52.210;21.174;2023-06-10T14:07:57;24.80;52.20
18408;DHT22;9330;52.210;21.174;2023-06-10T14:10:24;25.00;51.10
18408;DHT22;9330;52.210;21.174;2023-06-10T14:12:50;25.10;51.10
18408;DHT22;9330;52.210;21.174;2023-06-10T14:15:17;25.30;48.70
18408;DHT22;9330;52.210;21.174;2023-06-10T14:17:44;25.30;47.90
18408;DHT22;9330;52.210;21.174;2023-06-10T14:20:13;25.10;48.50
18408;DHT22;9330;52.210;21.174;2023-06-10T14:22:40;25.00;48.80
18408;DHT22;9330;52.210;21.174;2023-06-10T14:25:07;24.90;48.80
18408;DHT22;9330;52.210;21.174;2023-06-10T14:27:34;24.90;49.50
18408;DHT22;9330;52.210;21.174;2023-06-10T14:30:01;24.90;50.00
18408;DHT22;9330;52.210;21.174;2023-06-10T14:32:28;25.10;50.00
18408;DHT22;9330;52.210;21.174;2023-06-10T14:34:55;25.10;48.80
18408;DHT22;9330;52.210;21.174;2023-06-10T14:37:23;25.10;50.00
18408;DHT22;9330;52.210;21.174;2023-06-10T14:39:50;25.10;50.20
18408;DHT22;9330;52.210;21.174;2023-06-10T14:42:17;25.00;50.10
18408;DHT22;9330;52.210;21.174;2023-06-10T14:44:43;24.90;49.90
18408;DHT22;9330;52.210;21.174;2023-06-10T14:47:10;24.90;50.20
18408;DHT22;9330;52.210;21.174;2023-06-10T14:49:37;24.80;48.60
18408;DHT22;9330;52.210;21.174;2023-06-10T14:52:04;24.90;48.40
18408;DHT22;9330;52.210;21.174;2023-06-10T14:54:32;24.90;49.20
18408;DHT22;9330;52.210;21.174;2023-06-10T14:56:59;25.00;49.00
18408;DHT22;9330;52.210;21.174;2023-06-10T14:59:26;25.00;48.50
18408;DHT22;9330;52.210;21.174;2023-06-10T15:01:53;24.80;48.60
18408;DHT22;9330;52.210;21.174;2023-06-10T15:04:20;24.80;48.00
18408;DHT22;9330;52.210;21.174;2023-06-10T15:06:47;24.70;48.20
18408;DHT22;9330;52.210;21.174;2023-06-10T15:09:15;24.90;47.80
18408;DHT22;9330;52.210;21.174;2023-06-10T15:11:44;24.90;48.40
18408;DHT22;9330;52.210;21.174;2023-06-10T15:14:11;24.80;48.40
18408;DHT22;9330;52.210;21.174;2023-06-10T15:16:38;24.70;49.00
18408;DHT22;9330;52.210;21.174;2023-06-10T15:19:05;24.50;49.90
18408;DHT22;9330;52.210;21.174;2023-06-10T15:21:33;24.40;50.40
18408;DHT22;9330;52.210;21.174;2023-06-10T15:24:00;24.40;50.00
18408;DHT22;9330;52.210;21.174;2023-06-10T15:26:27;24.70;49.10
18408;DHT22;9330;52.210;21.174;2023-06-10T15:28:56;24.50;48.40
18408;DHT22;9330;52.210;21.174;2023-06-10T15:31:23;24.40;49.40
18408;DHT22;9330;52.210;21.174;2023-06-10T15:33:50;24.20;49.80
18408;DHT22;9330;52.210;21.174;2023-06-10T15:36:17;24.10;49.70